sensor_id;sensor_type;location;lat;lon;timestamp;pressure;altitude;pressure_sealevel;temperature;humidity
6343;BME280;3204;42.698;23.298;2023-09-19T00:01:32;95274.44;;;17.79;78.33
6343;BME280;3204;42.698;23.298;2023-09-19T00:03:57;95282.53;;;17.75;78.63
6343;BME280;3204;42.698;23.298;2023-09-19T00:06:23;95277.75;;;17.72;78.74
6343;BME280;3204;42.698;23.298;2023-09-19T00:08:52;95275.25;;;17.67;79.26
6343;BME280;3204;42.698;23.298;2023-09-19T00:11:18;95284.03;;;17.73;79.02
6343;BME280;3204;42.698;23.298;2023-09-19T00:13:44;95284.03;;;17.73;78.88
6343;BME280;3204;42.698;23.298;2023-09-19T00:16:10;95283.25;;;17.72;79.09
6343;BME280;3204;42.698;23.298;2023-09-19T00:18:37;95285.28;;;17.75;79.44
6343;BME280;3204;42.698;23.298;2023-09-19T00:21:03;95280.94;;;17.74;79.31
6343;BME280;3204;42.698;23.298;2023-09-19T00:23:30;95275.31;;;17.95;78.29
6343;BME280;3204;42.698;23.298;2023-09-19T00:26:00;95267.22;;;17.86;78.18
6343;BME280;3204;42.698;23.298;2023-09-19T00:28:26;95276.69;;;17.89;78.06
6343;BME280;3204;42.698;23.298;2023-09-19T00:30:52;95269.97;;;17.86;78.50
6343;BME280;3204;42.698;23.298;2023-09-19T00:33:20;95272.00;;;17.89;78.36
6343;BME280;3204;42.698;23.298;2023-09-19T00:35:49;95272.00;;;17.89;78.26
6343;BME280;3204;42.698;23.298;2023-09-19T00:38:16;95261.06;;;17.77;79.01
6343;BME280;3204;42.698;23.298;2023-09-19T00:40:47;95260.59;;;17.75;79.21
6343;BME280;3204;42.698;23.298;2023-09-19T00:43:13;95261.41;;;17.76;78.98
6343;BME280;3204;42.698;23.298;2023-09-19T00:45:39;95265.53;;;17.70;79.28
6343;BME280;3204;42.698;23.298;2023-09-19T00:48:08;95263.59;;;17.58;79.73
6343;BME280;3204;42.698;23.298;2023-09-19T00:50:35;95267.25;;;17.62;80.00
6343;BME280;3204;42.698;23.298;2023-09-19T00:53:01;95262.66;;;17.78;79.36
6343;BME280;3204;42.698;23.298;2023-09-19T00:55:29;95266.31;;;17.70;79.79
6343;BME280;3204;42.698;23.298;2023-09-19T00:57:55;95265.00;;;17.92;79.11
6343;BME280;3204;42.698;23.298;2023-09-19T01:00:21;95267.41;;;17.93;79.02
6343;BME280;3204;42.698;23.298;2023-09-19T01:02:48;95262.41;;;17.83;79.43
6343;BME280;3204;42.698;23.298;2023-09-19T01:05:14;95269.63;;;17.64;80.28
6343;BME280;3204;42.698;23.298;2023-09-19T01:07:39;95262.56;;;17.63;80.47
6343;BME280;3204;42.698;23.298;2023-09-19T01:10:11;95260.59;;;17.75;80.00
6343;BME280;3204;42.698;23.298;2023-09-19T01:15:22;95267.47;;;17.69;80.24
6343;BME280;3204;42.698;23.298;2023-09-19T01:26:11;95281.09;;;17.66;80.37
6343;BME280;3204;42.698;23.298;2023-09-19T01:29:17;95268.03;;;17.63;80.50
6343;BME280;3204;42.698;23.298;2023-09-19T01:31:47;95270.09;;;17.54;81.00
6343;BME280;3204;42.698;23.298;2023-09-19T01:34:14;95266.81;;;17.48;81.30
6343;BME280;3204;42.698;23.298;2023-09-19T01:36:39;95265.56;;;17.46;81.76
6343;BME280;3204;42.698;23.298;2023-09-19T01:39:06;95262.94;;;17.49;81.27
6343;BME280;3204;42.698;23.298;2023-09-19T01:41:47;95262.94;;;17.49;81.71
6343;BME280;3204;42.698;23.298;2023-09-19T01:50:34;95263.72;;;17.50;81.82
6343;BME280;3204;42.698;23.298;2023-09-19T01:53:27;95271.50;;;17.48;81.80
6343;BME280;3204;42.698;23.298;2023-09-19T01:55:54;95263.59;;;17.46;82.23
6343;BME280;3204;42.698;23.298;2023-09-19T01:58:42;95267.03;;;17.55;82.18
6343;BME280;3204;42.698;23.298;2023-09-19T02:01:11;95265.88;;;17.56;81.28
6343;BME280;3204;42.698;23.298;2023-09-19T02:03:41;95269.19;;;17.62;81.53
6343;BME280;3204;42.698;23.298;2023-09-19T02:06:06;95277.31;;;17.46;82.35
6343;BME280;3204;42.698;23.298;2023-09-19T02:08:37;95269.66;;;17.40;82.41
6343;BME280;3204;42.698;23.298;2023-09-19T02:11:02;95267.69;;;17.28;82.96
6343;BME280;3204;42.698;23.298;2023-09-19T02:13:28;95273.88;;;17.25;83.48
6343;BME280;3204;42.698;23.298;2023-09-19T02:15:54;95270.19;;;17.33;82.87
6343;BME280;3204;42.698;23.298;2023-09-19T02:18:20;95271.25;;;17.29;82.79
6343;BME280;3204;42.698;23.298;2023-09-19T02:20:45;95265.91;;;17.44;82.72
6343;BME280;3204;42.698;23.298;2023-09-19T02:23:12;95259.50;;;17.40;82.71
6343;BME280;3204;42.698;23.298;2023-09-19T02:25:38;95255.59;;;17.29;83.22
6343;BME280;3204;42.698;23.298;2023-09-19T02:28:04;95251.13;;;17.25;83.03
6343;BME280;3204;42.698;23.298;2023-09-19T02:30:30;95258.09;;;17.22;83.41
6343;BME280;3204;42.698;23.298;2023-09-19T02:32:56;95255.25;;;17.19;83.49
6343;BME280;3204;42.698;23.298;2023-09-19T02:35:21;95254.44;;;17.30;83.28
6343;BME280;3204;42.698;23.298;2023-09-19T02:37:48;95251.03;;;17.45;82.87
6343;BME280;3204;42.698;23.298;2023-09-19T02:40:14;95243.69;;;17.37;82.65
6343;BME280;3204;42.698;23.298;2023-09-19T02:42:53;95248.06;;;17.38;82.66
6343;BME280;3204;42.698;23.298;2023-09-19T02:45:19;95237.44;;;17.37;82.66
6343;BME280;3204;42.698;23.298;2023-09-19T02:47:45;95234.91;;;17.32;82.57
6343;BME280;3204;42.698;23.298;2023-09-19T02:50:11;95239.59;;;17.31;82.43
6343;BME280;3204;42.698;23.298;2023-09-19T02:52:37;95237.75;;;17.35;82.46
6343;BME280;3204;42.698;23.298;2023-09-19T02:55:03;95233.44;;;17.34;82.70
6343;BME280;3204;42.698;23.298;2023-09-19T02:57:31;95235.13;;;17.39;82.38
6343;BME280;3204;42.698;23.298;2023-09-19T02:59:59;95242.44;;;17.35;82.49
6343;BME280;3204;42.698;23.298;2023-09-19T03:02:26;95232.50;;;17.30;82.84
6343;BME280;3204;42.698;23.298;2023-09-19T03:04:53;95229.28;;;17.28;82.86
6343;BME280;3204;42.698;23.298;2023-09-19T03:07:18;95223.38;;;17.26;82.73
6343;BME280;3204;42.698;23.298;2023-09-19T03:09:44;95224.41;;;17.22;82.98
6343;BME280;3204;42.698;23.298;2023-09-19T03:12:11;95222.69;;;17.17;83.36
6343;BME280;3204;42.698;23.298;2023-09-19T03:14:41;95223.59;;;17.33;82.72
6343;BME280;3204;42.698;23.298;2023-09-19T03:17:07;95221.19;;;17.20;83.05
6343;BME280;3204;42.698;23.298;2023-09-19T03:19:34;95225.88;;;17.19;83.22
6343;BME280;3204;42.698;23.298;2023-09-19T03:21:59;95218.22;;;17.25;83.16
6343;BME280;3204;42.698;23.298;2023-09-19T03:24:25;95225.44;;;17.17;83.48
6343;BME280;3204;42.698;23.298;2023-09-19T03:26:51;95227.34;;;17.17;83.41
6343;BME280;3204;42.698;23.298;2023-09-19T03:29:17;95218.94;;;17.22;83.07
6343;BME280;3204;42.698;23.298;2023-09-19T03:31:43;95225.19;;;17.22;83.00
6343;BME280;3204;42.698;23.298;2023-09-19T03:34:09;95221.53;;;17.18;83.28
6343;BME280;3204;42.698;23.298;2023-09-19T03:36:35;95236.97;;;17.23;83.15
6343;BME280;3204;42.698;23.298;2023-09-19T03:39:01;95233.19;;;17.27;82.87
6343;BME280;3204;42.698;23.298;2023-09-19T03:41:30;95233.66;;;17.17;83.25
6343;BME280;3204;42.698;23.298;2023-09-19T03:43:56;95245.28;;;17.14;83.32
6343;BME280;3204;42.698;23.298;2023-09-19T03:46:22;95240.63;;;17.15;83.13
6343;BME280;3204;42.698;23.298;2023-09-19T03:48:47;95242.09;;;17.12;82.88
6343;BME280;3204;42.698;23.298;2023-09-19T03:51:13;95238.56;;;17.00;83.17
6343;BME280;3204;42.698;23.298;2023-09-19T03:53:38;95237.44;;;16.89;83.46
6343;BME280;3204;42.698;23.298;2023-09-19T03:56:04;95240.72;;;16.94;83.13
6343;BME280;3204;42.698;23.298;2023-09-19T03:58:30;95250.31;;;16.88;83.41
6343;BME280;3204;42.698;23.298;2023-09-19T04:00:56;95242.31;;;16.95;83.06
6343;BME280;3204;42.698;23.298;2023-09-19T04:03:22;95239.13;;;16.93;83.19
6343;BME280;3204;42.698;23.298;2023-09-19T04:05:47;95241.28;;;16.88;83.29
6343;BME280;3204;42.698;23.298;2023-09-19T04:08:13;95254.66;;;16.89;83.46
6343;BME280;3204;42.698;23.298;2023-09-19T04:10:42;95261.84;;;17.06;82.50
6343;BME280;3204;42.698;23.298;2023-09-19T04:13:07;95264.94;;;16.92;82.70
6343;BME280;3204;42.698;23.298;2023-09-19T04:15:32;95267.09;;;16.87;82.87
6343;BME280;3204;42.698;23.298;2023-09-19T04:17:58;95275.88;;;16.80;83.35
6343;BME280;3204;42.698;23.298;2023-09-19T04:20:23;95263.56;;;16.86;83.37
6343;BME280;3204;42.698;23.298;2023-09-19T04:22:49;95257.47;;;16.68;83.62
6343;BME280;3204;42.698;23.298;2023-09-19T04:25:15;95253.00;;;16.64;83.92
6343;BME280;3204;42.698;23.298;2023-09-19T04:27:40;95258.50;;;16.64;83.73
6343;BME280;3204;42.698;23.298;2023-09-19T04:30:09;95251.75;;;16.62;83.70
6343;BME280;3204;42.698;23.298;2023-09-19T04:32:37;95256.75;;;16.59;84.21
6343;BME280;3204;42.698;23.298;2023-09-19T04:35:10;95254.72;;;16.57;84.52
6343;BME280;3204;42.698;23.298;2023-09-19T04:37:39;95253.69;;;16.61;84.22
6343;BME280;3204;42.698;23.298;2023-09-19T04:40:07;95249.78;;;16.62;84.00
6343;BME280;3204;42.698;23.298;2023-09-19T04:42:40;95253.00;;;16.64;83.74
6343;BME280;3204;42.698;23.298;2023-09-19T04:45:07;95244.31;;;16.62;84.26
6343;BME280;3204;42.698;23.298;2023-09-19T04:47:35;95245.03;;;16.71;84.27
6343;BME280;3204;42.698;23.298;2023-09-19T04:50:00;95243.09;;;16.72;83.96
6343;BME280;3204;42.698;23.298;2023-09-19T04:52:26;95243.47;;;16.82;83.82
6343;BME280;3204;42.698;23.298;2023-09-19T04:54:51;95243.25;;;16.87;83.66
6343;BME280;3204;42.698;23.298;2023-09-19T04:57:17;95236.50;;;16.97;83.64
6343;BME280;3204;42.698;23.298;2023-09-19T04:59:43;95235.59;;;17.05;83.31
6343;BME280;3204;42.698;23.298;2023-09-19T05:02:08;95232.41;;;17.03;83.48
6343;BME280;3204;42.698;23.298;2023-09-19T05:04:34;95226.94;;;17.03;83.24
6343;BME280;3204;42.698;23.298;2023-09-19T05:07:00;95238.69;;;17.03;83.45
6343;BME280;3204;42.698;23.298;2023-09-19T05:09:29;95243.25;;;17.11;83.37
6343;BME280;3204;42.698;23.298;2023-09-19T05:11:54;95236.28;;;17.26;82.96
6343;BME280;3204;42.698;23.298;2023-09-19T05:14:19;95231.69;;;17.30;83.30
6343;BME280;3204;42.698;23.298;2023-09-19T05:16:46;95239.16;;;17.41;82.74
6343;BME280;3204;42.698;23.298;2023-09-19T05:19:11;95238.56;;;17.48;82.46
6343;BME280;3204;42.698;23.298;2023-09-19T05:21:37;95234.09;;;17.55;81.92
6343;BME280;3204;42.698;23.298;2023-09-19T05:24:05;95232.50;;;17.54;81.77
6343;BME280;3204;42.698;23.298;2023-09-19T05:26:32;95227.47;;;17.56;82.15
6343;BME280;3204;42.698;23.298;2023-09-19T05:28:57;95226.34;;;17.45;82.28
6343;BME280;3204;42.698;23.298;2023-09-19T05:31:23;95225.31;;;17.50;81.68
6343;BME280;3204;42.698;23.298;2023-09-19T05:33:49;95231.31;;;17.79;81.17
6343;BME280;3204;42.698;23.298;2023-09-19T05:36:15;95222.00;;;17.96;80.26
6343;BME280;3204;42.698;23.298;2023-09-19T05:38:42;95225.81;;;17.91;80.25
6343;BME280;3204;42.698;23.298;2023-09-19T05:41:08;95219.75;;;18.13;79.88
6343;BME280;3204;42.698;23.298;2023-09-19T05:43:35;95213.88;;;18.27;79.29
6343;BME280;3204;42.698;23.298;2023-09-19T05:46:03;95212.81;;;18.31;78.80
6343;BME280;3204;42.698;23.298;2023-09-19T05:48:28;95210.03;;;18.16;78.12
6343;BME280;3204;42.698;23.298;2023-09-19T05:50:54;95221.13;;;18.19;78.34
6343;BME280;3204;42.698;23.298;2023-09-19T05:53:19;95222.22;;;18.30;78.37
6343;BME280;3204;42.698;23.298;2023-09-19T05:55:45;95227.66;;;18.42;77.94
6343;BME280;3204;42.698;23.298;2023-09-19T05:58:11;95228.56;;;18.46;77.35
6343;BME280;3204;42.698;23.298;2023-09-19T06:00:39;95216.78;;;18.46;77.06
6343;BME280;3204;42.698;23.298;2023-09-19T06:03:06;95210.94;;;18.63;77.25
6343;BME280;3204;42.698;23.298;2023-09-19T06:05:33;95219.66;;;18.96;75.86
6343;BME280;3204;42.698;23.298;2023-09-19T06:07:59;95208.94;;;19.06;75.07
6343;BME280;3204;42.698;23.298;2023-09-19T06:10:35;95207.25;;;19.02;75.88
6343;BME280;3204;42.698;23.298;2023-09-19T06:13:04;95206.44;;;19.32;74.97
6343;BME280;3204;42.698;23.298;2023-09-19T06:15:30;95214.22;;;19.61;74.06
6343;BME280;3204;42.698;23.298;2023-09-19T06:17:58;95216.78;;;19.89;73.10
6343;BME280;3204;42.698;23.298;2023-09-19T06:20:26;95210.22;;;20.12;71.07
6343;BME280;3204;42.698;23.298;2023-09-19T06:22:52;95210.06;;;20.05;71.54
6343;BME280;3204;42.698;23.298;2023-09-19T06:25:18;95205.00;;;20.26;71.71
6343;BME280;3204;42.698;23.298;2023-09-19T06:27:50;95197.16;;;20.47;70.15
6343;BME280;3204;42.698;23.298;2023-09-19T06:30:19;95200.75;;;20.70;68.84
6343;BME280;3204;42.698;23.298;2023-09-19T06:32:45;95199.09;;;20.88;69.01
6343;BME280;3204;42.698;23.298;2023-09-19T06:35:12;95206.13;;;21.27;68.16
6343;BME280;3204;42.698;23.298;2023-09-19T06:37:38;95201.28;;;20.79;68.97
6343;BME280;3204;42.698;23.298;2023-09-19T06:40:14;95207.41;;;20.69;69.08
6343;BME280;3204;42.698;23.298;2023-09-19T06:43:05;95202.31;;;20.49;70.27
6343;BME280;3204;42.698;23.298;2023-09-19T06:45:31;95201.81;;;20.43;69.99
6343;BME280;3204;42.698;23.298;2023-09-19T06:47:57;95207.16;;;20.36;70.10
6343;BME280;3204;42.698;23.298;2023-09-19T06:50:25;95205.75;;;20.23;71.03
6343;BME280;3204;42.698;23.298;2023-09-19T06:52:54;95207.97;;;20.37;70.47
6343;BME280;3204;42.698;23.298;2023-09-19T06:55:22;95208.06;;;20.21;71.22
6343;BME280;3204;42.698;23.298;2023-09-19T06:57:50;95222.63;;;20.22;70.68
6343;BME280;3204;42.698;23.298;2023-09-19T07:00:16;95219.81;;;20.18;70.94
6343;BME280;3204;42.698;23.298;2023-09-19T07:05:30;95216.22;;;19.99;71.75
6343;BME280;3204;42.698;23.298;2023-09-19T07:07:56;95222.47;;;20.15;71.19
6343;BME280;3204;42.698;23.298;2023-09-19T07:10:24;95211.97;;;20.20;70.64
6343;BME280;3204;42.698;23.298;2023-09-19T07:13:03;95216.69;;;20.20;71.32
6343;BME280;3204;42.698;23.298;2023-09-19T07:15:31;95213.53;;;20.02;70.91
6343;BME280;3204;42.698;23.298;2023-09-19T07:17:58;95221.72;;;19.99;71.56
6343;BME280;3204;42.698;23.298;2023-09-19T07:20:26;95224.75;;;20.28;70.86
6343;BME280;3204;42.698;23.298;2023-09-19T07:22:52;95217.19;;;20.44;70.10
6343;BME280;3204;42.698;23.298;2023-09-19T07:25:20;95212.09;;;20.46;69.65
6343;BME280;3204;42.698;23.298;2023-09-19T07:27:46;95218.94;;;20.33;70.17
6343;BME280;3204;42.698;23.298;2023-09-19T07:30:11;95214.44;;;20.44;70.18
6343;BME280;3204;42.698;23.298;2023-09-19T07:32:37;95220.09;;;20.51;69.63
6343;BME280;3204;42.698;23.298;2023-09-19T07:35:04;95221.38;;;20.57;69.48
6343;BME280;3204;42.698;23.298;2023-09-19T07:37:33;95219.34;;;20.54;69.55
6343;BME280;3204;42.698;23.298;2023-09-19T07:40:04;95217.66;;;20.69;69.33
6343;BME280;3204;42.698;23.298;2023-09-19T07:42:35;95227.28;;;20.78;68.90
6343;BME280;3204;42.698;23.298;2023-09-19T07:45:02;95221.63;;;20.90;68.81
6343;BME280;3204;42.698;23.298;2023-09-19T07:47:28;95226.25;;;20.86;68.77
6343;BME280;3204;42.698;23.298;2023-09-19T07:49:55;95223.41;;;21.02;68.38
6343;BME280;3204;42.698;23.298;2023-09-19T07:52:20;95213.41;;;21.16;67.69
6343;BME280;3204;42.698;23.298;2023-09-19T07:54:48;95224.22;;;21.25;67.38
6343;BME280;3204;42.698;23.298;2023-09-19T07:57:14;95223.50;;;21.31;67.04
6343;BME280;3204;42.698;23.298;2023-09-19T07:59:40;95230.75;;;21.39;66.83
6343;BME280;3204;42.698;23.298;2023-09-19T08:02:07;95219.38;;;21.44;66.84
6343;BME280;3204;42.698;23.298;2023-09-19T08:04:35;95221.41;;;21.47;66.68
6343;BME280;3204;42.698;23.298;2023-09-19T08:07:01;95211.63;;;21.53;66.25
6343;BME280;3204;42.698;23.298;2023-09-19T08:09:29;95200.91;;;21.48;66.00
6343;BME280;3204;42.698;23.298;2023-09-19T08:11:58;95196.56;;;21.47;66.20
6343;BME280;3204;42.698;23.298;2023-09-19T08:14:24;95194.34;;;21.56;65.76
6343;BME280;3204;42.698;23.298;2023-09-19T08:16:51;95199.63;;;21.68;65.53
6343;BME280;3204;42.698;23.298;2023-09-19T08:19:16;95202.25;;;21.84;65.43
6343;BME280;3204;42.698;23.298;2023-09-19T08:21:42;95196.06;;;21.94;65.14
6343;BME280;3204;42.698;23.298;2023-09-19T08:24:12;95189.19;;;22.10;64.64
6343;BME280;3204;42.698;23.298;2023-09-19T08:26:37;95188.44;;;22.13;64.39
6343;BME280;3204;42.698;23.298;2023-09-19T08:29:03;95190.88;;;22.18;64.04
6343;BME280;3204;42.698;23.298;2023-09-19T08:31:30;95194.88;;;22.24;64.44
6343;BME280;3204;42.698;23.298;2023-09-19T08:33:56;95199.75;;;22.34;64.08
6343;BME280;3204;42.698;23.298;2023-09-19T08:36:21;95206.03;;;22.64;63.41
6343;BME280;3204;42.698;23.298;2023-09-19T08:38:47;95210.03;;;23.03;62.90
6343;BME280;3204;42.698;23.298;2023-09-19T08:41:12;95204.44;;;23.40;61.53
6343;BME280;3204;42.698;23.298;2023-09-19T08:43:37;95193.97;;;23.70;60.77
6343;BME280;3204;42.698;23.298;2023-09-19T08:46:11;95198.13;;;24.00;59.63
6343;BME280;3204;42.698;23.298;2023-09-19T08:48:57;95196.72;;;24.34;58.57
6343;BME280;3204;42.698;23.298;2023-09-19T08:51:43;95186.81;;;24.33;58.06
6343;BME280;3204;42.698;23.298;2023-09-19T08:54:32;95195.88;;;24.27;58.49
6343;BME280;3204;42.698;23.298;2023-09-19T08:57:05;95194.84;;;23.81;59.78
6343;BME280;3204;42.698;23.298;2023-09-19T08:59:33;95182.69;;;23.42;59.98
6343;BME280;3204;42.698;23.298;2023-09-19T09:02:00;95187.03;;;22.99;61.33
6343;BME280;3204;42.698;23.298;2023-09-19T09:04:26;95186.00;;;23.14;61.07
6343;BME280;3204;42.698;23.298;2023-09-19T09:06:53;95192.50;;;23.32;60.48
6343;BME280;3204;42.698;23.298;2023-09-19T09:09:20;95191.38;;;23.40;60.10
6343;BME280;3204;42.698;23.298;2023-09-19T09:11:48;95185.06;;;23.00;61.26
6343;BME280;3204;42.698;23.298;2023-09-19T09:14:13;95173.84;;;22.82;62.01
6343;BME280;3204;42.698;23.298;2023-09-19T09:16:39;95176.69;;;22.89;61.99
6343;BME280;3204;42.698;23.298;2023-09-19T09:19:05;95175.31;;;23.16;61.41
6343;BME280;3204;42.698;23.298;2023-09-19T09:21:30;95169.00;;;23.16;60.88
6343;BME280;3204;42.698;23.298;2023-09-19T09:24:25;95162.09;;;23.39;60.50
6343;BME280;3204;42.698;23.298;2023-09-19T09:26:51;95167.09;;;23.77;60.19
6343;BME280;3204;42.698;23.298;2023-09-19T09:29:42;95162.59;;;24.20;59.46
6343;BME280;3204;42.698;23.298;2023-09-19T09:32:30;95159.88;;;24.37;58.62
6343;BME280;3204;42.698;23.298;2023-09-19T09:35:00;95156.94;;;23.99;59.32
6343;BME280;3204;42.698;23.298;2023-09-19T09:37:26;95145.19;;;23.51;60.28
6343;BME280;3204;42.698;23.298;2023-09-19T09:39:55;95139.31;;;23.63;60.29
6343;BME280;3204;42.698;23.298;2023-09-19T09:45:27;95143.06;;;23.92;59.23
6343;BME280;3204;42.698;23.298;2023-09-19T09:47:59;95135.03;;;23.76;59.81
6343;BME280;3204;42.698;23.298;2023-09-19T09:50:35;95133.81;;;23.70;59.95
6343;BME280;3204;42.698;23.298;2023-09-19T09:53:26;95135.31;;;23.57;60.52
6343;BME280;3204;42.698;23.298;2023-09-19T09:56:19;95124.28;;;23.64;59.89
6343;BME280;3204;42.698;23.298;2023-09-19T09:58:51;95128.91;;;23.43;60.87
6343;BME280;3204;42.698;23.298;2023-09-19T10:01:22;95125.25;;;23.32;61.13
6343;BME280;3204;42.698;23.298;2023-09-19T10:03:57;95120.75;;;23.17;60.78
6343;BME280;3204;42.698;23.298;2023-09-19T10:06:22;95117.69;;;23.25;60.41
6343;BME280;3204;42.698;23.298;2023-09-19T10:11:46;95117.19;;;23.16;60.76
6343;BME280;3204;42.698;23.298;2023-09-19T10:14:16;95122.09;;;23.33;60.48
6343;BME280;3204;42.698;23.298;2023-09-19T10:16:48;95113.81;;;23.40;60.51
6343;BME280;3204;42.698;23.298;2023-09-19T10:19:37;95114.72;;;23.51;60.10
6343;BME280;3204;42.698;23.298;2023-09-19T10:22:05;95124.59;;;23.52;59.83
6343;BME280;3204;42.698;23.298;2023-09-19T10:24:35;95124.28;;;23.64;59.61
6343;BME280;3204;42.698;23.298;2023-09-19T10:27:02;95118.03;;;23.85;59.46
6343;BME280;3204;42.698;23.298;2023-09-19T10:29:32;95117.31;;;23.95;58.66
6343;BME280;3204;42.698;23.298;2023-09-19T10:31:58;95114.88;;;23.86;58.93
6343;BME280;3204;42.698;23.298;2023-09-19T10:34:25;95113.28;;;23.78;59.30
6343;BME280;3204;42.698;23.298;2023-09-19T10:36:52;95107.38;;;23.87;59.44
6343;BME280;3204;42.698;23.298;2023-09-19T10:39:19;95113.84;;;24.12;58.72
6343;BME280;3204;42.698;23.298;2023-09-19T10:41:53;95116.28;;;24.27;58.46
6343;BME280;3204;42.698;23.298;2023-09-19T10:44:31;95101.16;;;24.11;58.35
6343;BME280;3204;42.698;23.298;2023-09-19T10:46:57;95103.50;;;23.98;58.79
6343;BME280;3204;42.698;23.298;2023-09-19T10:49:23;95101.13;;;24.00;58.85
6343;BME280;3204;42.698;23.298;2023-09-19T10:51:52;95100.75;;;24.05;59.01
6343;BME280;3204;42.698;23.298;2023-09-19T10:54:21;95088.88;;;24.05;59.90
6343;BME280;3204;42.698;23.298;2023-09-19T10:56:52;95090.84;;;24.11;59.53
6343;BME280;3204;42.698;23.298;2023-09-19T10:59:20;95094.47;;;24.22;59.96
6343;BME280;3204;42.698;23.298;2023-09-19T11:01:51;95086.59;;;24.31;59.13
6343;BME280;3204;42.698;23.298;2023-09-19T11:04:31;95088.13;;;24.25;58.40
6343;BME280;3204;42.698;23.298;2023-09-19T11:09:54;95081.84;;;24.39;58.31
6343;BME280;3204;42.698;23.298;2023-09-19T11:15:01;95088.25;;;24.64;57.56
6343;BME280;3204;42.698;23.298;2023-09-19T11:17:37;95085.88;;;24.73;57.66
6343;BME280;3204;42.698;23.298;2023-09-19T11:33:24;95066.47;;;25.11;56.93
6343;BME280;3204;42.698;23.298;2023-09-19T11:44:30;95033.09;;;25.46;55.24
6343;BME280;3204;42.698;23.298;2023-09-19T11:46:52;95031.13;;;25.40;55.34
6343;BME280;3204;42.698;23.298;2023-09-19T11:49:18;95035.84;;;25.53;55.42
6343;BME280;3204;42.698;23.298;2023-09-19T11:51:50;95026.28;;;25.68;55.05
6343;BME280;3204;42.698;23.298;2023-09-19T11:54:19;95033.34;;;25.87;54.71
6343;BME280;3204;42.698;23.298;2023-09-19T11:56:51;95037.28;;;25.96;54.14
6343;BME280;3204;42.698;23.298;2023-09-19T11:59:23;95032.53;;;25.86;54.41
6343;BME280;3204;42.698;23.298;2023-09-19T12:01:53;95030.94;;;25.89;54.31
6343;BME280;3204;42.698;23.298;2023-09-19T12:06:58;95014.63;;;25.98;54.47
6343;BME280;3204;42.698;23.298;2023-09-19T12:09:24;95010.16;;;26.21;54.43
6343;BME280;3204;42.698;23.298;2023-09-19T12:11:50;95013.53;;;26.57;53.45
6343;BME280;3204;42.698;23.298;2023-09-19T12:14:26;95003.38;;;26.80;52.61
6343;BME280;3204;42.698;23.298;2023-09-19T12:16:53;95004.88;;;26.92;52.11
6343;BME280;3204;42.698;23.298;2023-09-19T12:19:21;95007.72;;;27.29;52.10
6343;BME280;3204;42.698;23.298;2023-09-19T12:22:07;95003.75;;;27.97;50.59
6343;BME280;3204;42.698;23.298;2023-09-19T12:24:34;95000.91;;;28.31;49.53
6343;BME280;3204;42.698;23.298;2023-09-19T12:27:04;94997.81;;;28.25;49.75
6343;BME280;3204;42.698;23.298;2023-09-19T12:29:31;94994.34;;;27.88;50.07
6343;BME280;3204;42.698;23.298;2023-09-19T12:31:58;94979.53;;;27.94;50.08
6343;BME280;3204;42.698;23.298;2023-09-19T12:34:25;94986.47;;;27.76;49.95
6343;BME280;3204;42.698;23.298;2023-09-19T12:37:23;94989.59;;;27.10;51.45
6343;BME280;3204;42.698;23.298;2023-09-19T12:40:04;94980.94;;;26.98;51.99
6343;BME280;3204;42.698;23.298;2023-09-19T12:42:40;94970.34;;;27.27;51.53
6343;BME280;3204;42.698;23.298;2023-09-19T12:45:07;94979.09;;;27.25;51.28
6343;BME280;3204;42.698;23.298;2023-09-19T12:47:35;94972.63;;;26.94;52.31
6343;BME280;3204;42.698;23.298;2023-09-19T12:50:10;94975.69;;;27.07;52.06
6343;BME280;3204;42.698;23.298;2023-09-19T12:52:48;94976.03;;;27.12;51.92
6343;BME280;3204;42.698;23.298;2023-09-19T12:55:24;94973.63;;;27.52;51.37
6343;BME280;3204;42.698;23.298;2023-09-19T12:58:00;94977.19;;;27.56;50.71
6343;BME280;3204;42.698;23.298;2023-09-19T13:00:37;94962.03;;;27.57;50.72
6343;BME280;3204;42.698;23.298;2023-09-19T13:05:59;94958.75;;;27.32;50.82
6343;BME280;3204;42.698;23.298;2023-09-19T13:08:34;94954.81;;;27.63;50.65
6343;BME280;3204;42.698;23.298;2023-09-19T13:11:15;94956.50;;;27.87;50.27
6343;BME280;3204;42.698;23.298;2023-09-19T13:14:26;94950.88;;;27.90;49.72
6343;BME280;3204;42.698;23.298;2023-09-19T13:16:33;94962.47;;;28.15;49.84
6343;BME280;3204;42.698;23.298;2023-09-19T13:18:59;94956.28;;;28.31;48.89
6343;BME280;3204;42.698;23.298;2023-09-19T13:21:32;94945.66;;;28.49;48.77
6343;BME280;3204;42.698;23.298;2023-09-19T13:24:24;94935.25;;;28.49;48.73
6343;BME280;3204;42.698;23.298;2023-09-19T13:26:53;94931.22;;;28.54;49.00
6343;BME280;3204;42.698;23.298;2023-09-19T13:29:19;94928.28;;;28.84;48.49
6343;BME280;3204;42.698;23.298;2023-09-19T13:31:51;94924.22;;;29.11;47.93
6343;BME280;3204;42.698;23.298;2023-09-19T13:34:20;94928.63;;;29.12;47.49
6343;BME280;3204;42.698;23.298;2023-09-19T13:36:46;94933.38;;;28.66;48.16
6343;BME280;3204;42.698;23.298;2023-09-19T13:39:15;94931.31;;;28.20;49.21
6343;BME280;3204;42.698;23.298;2023-09-19T13:41:43;94932.59;;;28.16;49.61
6343;BME280;3204;42.698;23.298;2023-09-19T13:44:09;94930.09;;;28.21;49.58
6343;BME280;3204;42.698;23.298;2023-09-19T13:46:36;94927.63;;;28.27;49.18
6343;BME280;3204;42.698;23.298;2023-09-19T13:49:02;94924.97;;;28.46;49.14
6343;BME280;3204;42.698;23.298;2023-09-19T13:51:31;94922.22;;;28.66;48.88
6343;BME280;3204;42.698;23.298;2023-09-19T13:53:58;94919.91;;;28.61;48.88
6343;BME280;3204;42.698;23.298;2023-09-19T13:56:25;94919.31;;;28.50;49.36
6343;BME280;3204;42.698;23.298;2023-09-19T13:58:53;94916.34;;;28.34;49.44
6343;BME280;3204;42.698;23.298;2023-09-19T14:01:19;94918.03;;;28.28;49.62
6343;BME280;3204;42.698;23.298;2023-09-19T14:03:44;94908.97;;;28.47;49.66
6343;BME280;3204;42.698;23.298;2023-09-19T14:06:15;94923.44;;;28.65;49.68
6343;BME280;3204;42.698;23.298;2023-09-19T14:08:41;94916.06;;;28.97;48.81
6343;BME280;3204;42.698;23.298;2023-09-19T14:11:07;94920.00;;;29.23;48.65
6343;BME280;3204;42.698;23.298;2023-09-19T14:13:32;94917.38;;;28.93;48.65
6343;BME280;3204;42.698;23.298;2023-09-19T14:16:03;94918.63;;;28.88;48.72
6343;BME280;3204;42.698;23.298;2023-09-19T14:18:30;94923.13;;;28.59;49.00